Time;durP1;ratioP1;P1;durP2;ratioP2;P2;SDS_P1;SDS_P2;PMS_P1;PMS_P2;Temp;Humidity;BMP_temperature;BMP_pressure;BME280_temperature;BME280_humidity;BME280_pressure;Samples;Min_cycle;Max_cycle;Signal;HPM_P1;HPM_P2
2023/09/08 00:02:01;;;;;;;6.30;4.00;;;;;;;12.08;100.00;100200.95;109609;1250;59793;-69
2023/09/08 00:04:28;;;;;;;5.00;4.20;;;;;;;12.08;100.00;100199.98;109675;1250;60104;-67
2023/09/08 00:06:55;;;;;;;4.90;3.30;;;;;;;12.11;100.00;100200.70;109641;1250;74584;-69
2023/09/08 00:09:21;;;;;;;6.30;3.80;;;;;;;12.12;100.00;100203.82;109681;1250;66720;-67
2023/09/08 00:11:48;;;;;;;4.60;3.60;;;;;;;12.10;100.00;100206.55;109631;1250;59913;-67
2023/09/08 00:14:15;;;;;;;5.50;3.70;;;;;;;12.06;100.00;100208.91;109661;1250;60210;-67
2023/09/08 00:16:42;;;;;;;7.40;3.60;;;;;;;12.02;100.00;100210.60;109672;1250;59723;-67
2023/09/08 00:19:12;;;;;;;8.40;3.90;;;;;;;12.05;100.00;100211.38;109616;1250;75630;-69
2023/09/08 00:21:39;;;;;;;6.00;3.70;;;;;;;12.18;100.00;100207.51;109639;1250;66786;-69
2023/09/08 00:24:06;;;;;;;4.80;3.60;;;;;;;12.32;100.00;100205.07;109621;1250;71507;-66
2023/09/08 00:26:32;;;;;;;4.20;3.60;;;;;;;12.44;100.00;100200.26;109658;1252;60733;-67
2023/09/08 00:28:59;;;;;;;5.40;3.80;;;;;;;12.54;100.00;100203.08;109729;1250;59598;-69
2023/09/08 00:31:26;;;;;;;6.40;4.40;;;;;;;12.57;100.00;100205.60;109650;1250;75263;-68
2023/09/08 00:33:52;;;;;;;5.50;3.60;;;;;;;12.58;100.00;100203.54;109561;1255;66961;-67
2023/09/08 00:36:19;;;;;;;6.30;4.30;;;;;;;12.58;100.00;100202.98;109644;1250;70726;-66
2023/09/08 00:38:46;;;;;;;4.60;3.70;;;;;;;12.58;100.00;100199.07;109599;1250;59748;-67
2023/09/08 00:41:12;;;;;;;5.00;3.70;;;;;;;12.58;100.00;100195.51;109654;1250;59687;-68
2023/09/08 00:43:39;;;;;;;5.90;4.20;;;;;;;12.60;100.00;100197.83;109644;1250;74002;-68
2023/09/08 00:46:06;;;;;;;7.20;4.00;;;;;;;12.61;100.00;100199.65;109632;1250;67661;-67
2023/09/08 00:48:34;;;;;;;6.70;3.70;;;;;;;12.61;100.00;100196.04;109463;1250;71800;-67
2023/09/08 00:51:01;;;;;;;5.30;3.90;;;;;;;12.64;100.00;100192.54;109581;1250;62018;-66
2023/09/08 00:53:28;;;;;;;3.80;3.20;;;;;;;12.67;100.00;100194.20;109582;1250;59907;-69
2023/09/08 00:55:55;;;;;;;5.80;3.90;;;;;;;12.69;100.00;100196.61;109577;1250;73400;-69
2023/09/08 00:58:21;;;;;;;6.50;3.90;;;;;;;12.70;100.00;100195.84;109603;1250;67955;-68
2023/09/08 01:00:48;;;;;;;5.20;3.50;;;;;;;12.70;100.00;100191.56;109617;1250;72307;-69
2023/09/08 01:03:14;;;;;;;5.00;3.60;;;;;;;12.68;100.00;100189.30;109515;1256;59802;-67
2023/09/08 01:05:41;;;;;;;4.40;3.20;;;;;;;12.67;100.00;100185.88;109650;1250;60256;-68
2023/09/08 01:08:08;;;;;;;4.70;3.80;;;;;;;12.64;100.00;100187.77;109682;1250;75460;-66
2023/09/08 01:10:36;;;;;;;6.30;3.60;;;;;;;12.58;100.00;100185.52;109557;1250;66680;-68
2023/09/08 01:13:03;;;;;;;6.00;3.20;;;;;;;12.45;100.00;100183.23;109534;1253;72564;-68
2023/09/08 01:15:30;;;;;;;6.10;3.80;;;;;;;12.21;100.00;100181.61;109525;1250;60895;-67
2023/09/08 01:17:57;;;;;;;6.60;3.60;;;;;;;11.96;100.00;100189.16;109641;1250;59673;-68
2023/09/08 01:20:41;;;;;;;6.60;3.80;;;;;;;11.76;100.00;100193.84;109697;1251;75345;-69
2023/09/08 01:23:45;;;;;;;5.00;3.90;;;;;;;11.60;100.00;100197.16;109518;1251;65526;-67
2023/09/08 01:26:16;;;;;;;4.30;3.20;;;;;;;11.47;100.00;100200.81;109589;1251;71599;-68
2023/09/08 01:28:42;;;;;;;6.10;3.80;;;;;;;11.42;100.00;100204.40;109455;1251;60646;-69
2023/09/08 01:31:09;;;;;;;4.90;3.50;;;;;;;11.40;100.00;100202.99;109598;1251;59820;-68
2023/09/08 01:33:36;;;;;;;5.60;3.70;;;;;;;11.41;100.00;100198.63;109565;1250;75332;-68
2023/09/08 01:36:04;;;;;;;4.50;3.40;;;;;;;11.43;100.00;100200.84;109629;1251;65976;-67
2023/09/08 01:38:30;;;;;;;4.70;3.40;;;;;;;11.46;100.00;100195.56;109636;1251;72537;-68
2023/09/08 01:40:58;;;;;;;5.30;3.80;;;;;;;11.49;100.00;100196.19;109645;1251;59770;-67
2023/09/08 01:43:25;;;;;;;4.90;3.80;;;;;;;11.49;100.00;100190.83;109633;1251;59678;-69
2023/09/08 01:45:52;;;;;;;4.70;3.80;;;;;;;11.47;100.00;100187.10;109697;1250;75487;-68
2023/09/08 01:48:18;;;;;;;4.90;3.80;;;;;;;11.44;100.00;100192.62;109617;1251;67756;-67
2023/09/08 01:50:46;;;;;;;5.50;3.70;;;;;;;11.40;100.00;100197.93;109522;1251;72421;-66
2023/09/08 01:53:13;;;;;;;4.80;3.50;;;;;;;11.37;100.00;100200.23;109390;1251;61841;-67
2023/09/08 01:55:39;;;;;;;5.00;3.90;;;;;;;11.34;100.00;100196.89;109671;1251;60028;-67
2023/09/08 01:58:06;;;;;;;3.90;3.60;;;;;;;11.32;100.00;100195.81;109589;1250;73016;-66
2023/09/08 02:00:33;;;;;;;6.50;4.20;;;;;;;11.32;100.00;100189.77;109648;1251;66599;-68
2023/09/08 02:02:59;;;;;;;6.00;4.30;;;;;;;11.33;100.00;100190.86;109563;1250;72533;-67
2023/09/08 02:05:27;;;;;;;4.40;3.90;;;;;;;11.33;100.00;100188.06;109657;1251;62521;-68
2023/09/08 02:07:55;;;;;;;4.50;3.50;;;;;;;11.32;100.00;100188.52;109658;1250;60004;-67
2023/09/08 02:10:22;;;;;;;6.00;4.00;;;;;;;11.29;100.00;100193.51;109650;1250;75226;-68
2023/09/08 02:12:48;;;;;;;4.20;3.80;;;;;;;11.25;100.00;100191.95;109565;1251;67682;-66
2023/09/08 02:15:17;;;;;;;5.50;3.80;;;;;;;11.26;100.00;100196.45;109521;1254;71531;-69
2023/09/08 02:17:43;;;;;;;5.00;3.90;;;;;;;11.29;100.00;100191.00;109574;1251;61050;-69
2023/09/08 02:20:11;;;;;;;6.90;4.10;;;;;;;11.31;100.00;100187.79;109684;1251;59940;-69
2023/09/08 02:22:37;;;;;;;4.40;3.20;;;;;;;11.31;100.00;100182.63;109626;1250;75503;-68
2023/09/08 02:25:04;;;;;;;6.20;4.10;;;;;;;11.24;100.00;100174.59;109611;1250;66742;-68
2023/09/08 02:27:32;;;;;;;4.50;3.70;;;;;;;11.18;100.00;100172.60;109588;1250;72930;-70
2023/09/08 02:29:58;;;;;;;5.20;4.00;;;;;;;11.12;100.00;100169.77;109664;1251;61861;-70
2023/09/08 02:32:26;;;;;;;5.20;4.00;;;;;;;11.07;100.00;100167.27;109483;1250;59699;-68
2023/09/08 02:34:52;;;;;;;5.00;3.60;;;;;;;11.04;100.00;100168.98;109594;1250;60378;-68
2023/09/08 02:37:19;;;;;;;7.00;4.60;;;;;;;11.04;100.00;100172.94;109592;1250;66701;-69
2023/09/08 02:39:46;;;;;;;5.70;4.20;;;;;;;11.04;100.00;100172.81;109582;1251;72470;-69
2023/09/08 02:42:12;;;;;;;6.90;4.40;;;;;;;11.03;100.00;100170.06;109524;1251;59796;-68
2023/09/08 02:44:39;;;;;;;5.60;4.50;;;;;;;11.03;100.00;100168.60;109669;1251;60132;-69
2023/09/08 02:47:06;;;;;;;6.90;4.30;;;;;;;11.02;100.00;100170.86;109595;1250;75246;-70
2023/09/08 02:49:34;;;;;;;5.10;4.40;;;;;;;11.00;100.00;100166.30;109531;1250;66406;-68
2023/09/08 02:52:01;;;;;;;5.10;4.10;;;;;;;10.98;100.00;100164.31;109505;1251;73060;-68
2023/09/08 02:54:28;;;;;;;6.90;4.00;;;;;;;10.96;100.00;100163.44;109590;1251;60692;-69
2023/09/08 02:56:54;;;;;;;7.70;4.70;;;;;;;10.95;100.00;100160.57;109652;1250;59759;-70
2023/09/08 02:59:21;;;;;;;4.70;4.10;;;;;;;10.93;100.00;100159.39;109522;1251;75499;-70
2023/09/08 03:01:47;;;;;;;5.50;4.10;;;;;;;10.88;100.00;100156.33;109566;1251;66445;-68
2023/09/08 03:04:14;;;;;;;5.70;4.00;;;;;;;10.79;100.00;100153.48;109560;1251;72653;-68
2023/09/08 03:06:40;;;;;;;5.90;4.30;;;;;;;10.72;100.00;100153.15;109512;1250;62271;-70
2023/09/08 03:09:07;;;;;;;4.70;3.80;;;;;;;10.66;100.00;100158.63;109665;1251;60295;-67
2023/09/08 03:11:34;;;;;;;6.40;4.30;;;;;;;10.59;100.00;100158.08;109575;1250;75295;-67
2023/09/08 03:14:00;;;;;;;6.00;4.50;;;;;;;10.58;100.00;100159.45;109720;1251;59953;-69
2023/09/08 03:16:27;;;;;;;5.40;4.30;;;;;;;10.57;100.00;100160.71;109612;1251;71081;-69
2023/09/08 03:18:54;;;;;;;4.20;3.70;;;;;;;10.59;100.00;100159.13;109656;1250;59817;-67
2023/09/08 03:21:20;;;;;;;8.90;4.30;;;;;;;10.61;100.00;100161.01;109539;1251;60152;-70
2023/09/08 03:23:47;;;;;;;5.50;4.20;;;;;;;10.62;100.00;100160.08;109595;1251;74038;-67
2023/09/08 03:26:15;;;;;;;5.80;4.30;;;;;;;10.60;100.00;100163.30;109541;1251;66395;-69
2023/09/08 03:28:42;;;;;;;6.30;4.70;;;;;;;10.56;100.00;100162.30;109651;1250;70649;-68
2023/09/08 03:31:09;;;;;;;5.10;3.70;;;;;;;10.55;100.00;100159.36;109567;1251;62009;-68
2023/09/08 03:33:35;;;;;;;5.00;3.90;;;;;;;10.57;100.00;100157.55;109609;1250;60207;-69
2023/09/08 03:36:03;;;;;;;3.90;3.20;;;;;;;10.61;100.00;100155.75;109581;1250;75211;-68
2023/09/08 03:38:30;;;;;;;6.10;3.80;;;;;;;10.65;100.00;100153.86;109681;1250;67754;-70
2023/09/08 03:40:56;;;;;;;6.10;3.60;;;;;;;10.69;100.00;100150.63;109525;1250;72301;-68
2023/09/08 03:43:24;;;;;;;5.40;4.30;;;;;;;10.72;100.00;100148.02;109500;1251;59780;-69
2023/09/08 03:45:50;;;;;;;5.80;4.50;;;;;;;10.70;100.00;100147.38;109535;1251;60315;-69
2023/09/08 03:48:17;;;;;;;7.30;4.90;;;;;;;10.67;100.00;100142.23;109491;1250;75260;-69
2023/09/08 03:50:45;;;;;;;5.90;4.60;;;;;;;10.62;100.00;100139.13;109645;1251;67872;-69
2023/09/08 03:53:12;;;;;;;7.90;4.20;;;;;;;10.53;100.00;100141.60;109535;1251;72796;-69
2023/09/08 03:55:39;;;;;;;10.60;4.80;;;;;;;10.45;100.00;100147.23;109635;1250;61973;-64
2023/09/08 03:58:05;;;;;;;5.10;3.40;;;;;;;10.39;100.00;100147.09;109600;1251;59724;-65
2023/09/08 04:00:32;;;;;;;5.50;3.90;;;;;;;10.39;100.00;100146.70;109617;1251;75722;-69
2023/09/08 04:02:59;;;;;;;4.50;3.90;;;;;;;10.44;100.00;100145.93;109549;1251;59809;-69
2023/09/08 04:05:25;;;;;;;6.50;4.00;;;;;;;10.47;100.00;100145.39;109700;1250;70826;-68
2023/09/08 04:07:52;;;;;;;5.20;3.90;;;;;;;10.52;100.00;100147.02;109481;1251;60210;-69
2023/09/08 04:10:19;;;;;;;5.60;3.90;;;;;;;10.61;100.00;100145.81;109678;1250;60459;-68
2023/09/08 04:12:46;;;;;;;7.80;4.40;;;;;;;10.72;100.00;100145.70;109633;1251;74236;-66
2023/09/08 04:15:12;;;;;;;5.20;4.10;;;;;;;10.89;100.00;100147.48;109697;1250;67561;-68
2023/09/08 04:17:39;;;;;;;6.30;4.30;;;;;;;11.12;100.00;100144.43;109628;1251;72629;-70
2023/09/08 04:20:07;;;;;;;4.70;3.90;;;;;;;11.41;100.00;100144.78;109561;1251;60460;-66
2023/09/08 04:22:34;;;;;;;5.80;4.10;;;;;;;11.71;100.00;100146.02;109507;1251;61840;-69
2023/09/08 04:25:01;;;;;;;6.10;4.10;;;;;;;12.05;100.00;100142.01;109491;1251;75481;-70
2023/09/08 04:27:28;;;;;;;6.30;4.20;;;;;;;12.41;100.00;100146.27;109538;1250;69400;-69
2023/09/08 04:29:55;;;;;;;9.00;3.90;;;;;;;12.74;100.00;100136.84;109633;1250;72986;-68
2023/09/08 04:32:22;;;;;;;6.30;3.90;;;;;;;13.03;100.00;100134.81;109640;1250;62018;-67
2023/09/08 04:34:49;;;;;;;4.50;3.70;;;;;;;13.30;100.00;100132.61;109576;1250;59680;-68
2023/09/08 04:37:16;;;;;;;6.00;4.20;;;;;;;13.52;100.00;100130.16;109594;1250;75234;-69
2023/09/08 04:39:44;;;;;;;10.30;4.50;;;;;;;13.73;100.00;100124.52;109649;1251;67699;-72
2023/09/08 04:42:12;;;;;;;7.40;4.10;;;;;;;14.01;100.00;100124.63;109531;1251;71480;-73
2023/09/08 04:44:39;;;;;;;8.60;4.10;;;;;;;14.33;100.00;100127.75;109635;1250;59862;-70
2023/09/08 04:47:07;;;;;;;12.20;4.40;;;;;;;14.63;100.00;100120.34;109601;1251;59820;-71
2023/09/08 04:49:34;;;;;;;12.20;4.70;;;;;;;14.89;100.00;100117.87;109537;1251;75402;-70
2023/09/08 04:52:01;;;;;;;11.90;4.00;;;;;;;15.10;100.00;100114.93;109670;1250;67858;-73
2023/09/08 04:54:28;;;;;;;11.50;4.30;;;;;;;15.38;100.00;100115.59;109488;1251;72426;-70
2023/09/08 04:56:56;;;;;;;14.30;4.10;;;;;;;15.69;100.00;100115.02;109550;1250;61558;-70
2023/09/08 04:59:44;;;;;;;9.90;5.20;;;;;;;16.05;100.00;100107.64;109382;1251;59660;-69
2023/09/08 05:02:11;;;;;;;19.90;7.60;;;;;;;16.35;100.00;100104.19;109663;1250;73943;-71
2023/09/08 05:04:38;;;;;;;22.50;6.40;;;;;;;16.67;100.00;100097.88;109529;1253;66450;-72
2023/09/08 05:07:05;;;;;;;14.00;5.30;;;;;;;17.00;100.00;100092.92;109558;1251;71081;-68
2023/09/08 05:09:33;;;;;;;17.10;5.40;;;;;;;17.36;100.00;100092.52;109520;1250;60286;-69
2023/09/08 05:12:00;;;;;;;9.70;5.20;;;;;;;17.68;100.00;100090.41;109528;1250;61624;-66
2023/09/08 05:14:28;;;;;;;10.80;5.00;;;;;;;17.96;100.00;100087.43;109463;1250;74092;-69
2023/09/08 05:16:56;;;;;;;31.00;5.90;;;;;;;18.21;100.00;100086.75;109315;1250;196289;-71
2023/09/08 05:19:25;;;;;;;8.40;4.90;;;;;;;18.47;100.00;100081.95;109466;1251;71273;-71
2023/09/08 05:21:54;;;;;;;9.50;5.20;;;;;;;18.73;100.00;100082.71;109532;1250;60504;-71
2023/09/08 05:24:21;;;;;;;9.20;5.40;;;;;;;18.91;100.00;100077.30;109477;1250;60104;-69
2023/09/08 05:26:48;;;;;;;10.20;5.40;;;;;;;19.07;100.00;100074.37;109467;1250;75166;-69
2023/09/08 05:29:15;;;;;;;6.20;4.80;;;;;;;19.26;100.00;100069.09;109535;1250;68164;-69
2023/09/08 05:31:42;;;;;;;6.70;4.50;;;;;;;19.47;100.00;100065.43;109528;1250;72372;-69
2023/09/08 05:34:10;;;;;;;5.60;4.70;;;;;;;19.72;100.00;100066.41;109410;1251;60284;-70
2023/09/08 05:36:38;;;;;;;6.60;4.80;;;;;;;19.94;100.00;100061.05;109464;1251;60224;-69
2023/09/08 05:39:05;;;;;;;6.50;5.10;;;;;;;20.17;100.00;100058.39;109466;1250;75488;-69
2023/09/08 05:41:33;;;;;;;15.00;5.60;;;;;;;20.38;100.00;100053.19;109426;1254;67632;-69
2023/09/08 05:44:00;;;;;;;7.10;4.80;;;;;;;20.60;100.00;100055.59;109415;1251;72911;-70
2023/09/08 05:46:27;;;;;;;6.60;5.10;;;;;;;20.77;100.00;100057.46;109337;1250;59858;-69
2023/09/08 05:48:54;;;;;;;7.00;4.30;;;;;;;20.88;100.00;100056.90;109591;1250;60143;-69
2023/09/08 05:51:22;;;;;;;6.80;4.50;;;;;;;21.05;100.00;100054.74;109617;1250;75575;-68
2023/09/08 05:53:49;;;;;;;6.10;5.50;;;;;;;21.29;100.00;100052.48;109604;1251;67228;-71
2023/09/08 05:56:18;;;;;;;6.90;5.20;;;;;;;21.46;100.00;100054.00;109530;1251;72827;-71
2023/09/08 05:58:45;;;;;;;6.50;5.10;;;;;;;21.59;99.93;100054.38;109493;1250;60414;-71
2023/09/08 06:01:12;;;;;;;9.40;5.30;;;;;;;21.70;99.90;100057.61;109526;1250;60469;-71
2023/09/08 06:03:39;;;;;;;7.00;5.30;;;;;;;21.90;98.80;100056.54;109477;1250;74778;-71
2023/09/08 06:06:06;;;;;;;9.40;5.90;;;;;;;22.07;96.48;100059.42;109735;1250;67646;-71
2023/09/08 06:08:32;;;;;;;10.50;5.90;;;;;;;22.21;96.50;100065.27;109532;1250;72718;-70
2023/09/08 06:11:00;;;;;;;8.00;5.20;;;;;;;22.49;95.40;100061.57;109530;1250;60198;-69
2023/09/08 06:13:26;;;;;;;6.90;5.30;;;;;;;22.78;92.96;100062.86;109507;1251;59664;-71
2023/09/08 06:15:53;;;;;;;7.20;5.20;;;;;;;23.04;91.40;100060.42;109524;1251;74233;-69
2023/09/08 06:18:20;;;;;;;15.70;5.90;;;;;;;23.37;88.52;100055.33;109527;1251;68224;-70
2023/09/08 06:20:48;;;;;;;7.50;5.40;;;;;;;23.59;87.30;100053.02;109617;1250;72665;-69
2023/09/08 06:23:15;;;;;;;8.20;6.00;;;;;;;23.86;84.41;100050.99;109507;1252;60674;-69
2023/09/08 06:25:41;;;;;;;7.10;5.00;;;;;;;24.08;81.07;100055.17;109642;1250;59733;-70
2023/09/08 06:28:09;;;;;;;9.40;5.20;;;;;;;24.19;78.69;100056.92;109547;1250;74379;-70
2023/09/08 06:30:36;;;;;;;9.60;5.10;;;;;;;24.37;79.53;100056.20;109598;1250;67800;-70
2023/09/08 06:33:02;;;;;;;7.00;4.50;;;;;;;24.68;78.11;100050.88;109568;1250;72688;-70
2023/09/08 06:35:30;;;;;;;7.30;5.20;;;;;;;24.99;74.41;100048.27;109449;1251;60159;-69
2023/09/08 06:37:57;;;;;;;6.50;5.20;;;;;;;25.17;72.51;100054.73;109563;1250;61747;-69
2023/09/08 06:40:24;;;;;;;7.60;5.00;;;;;;;25.36;71.46;100054.52;109428;1250;75800;-70
2023/09/08 06:42:51;;;;;;;11.70;5.00;;;;;;;25.66;69.01;100053.61;109555;1250;67210;-70
2023/09/08 06:45:26;;;;;;;6.80;4.80;;;;;;;25.93;66.79;100052.66;109550;1250;72714;-70
2023/09/08 06:47:54;;;;;;;18.50;5.20;;;;;;;26.18;63.60;100049.99;109549;1250;60079;-69
2023/09/08 06:50:22;;;;;;;11.90;4.90;;;;;;;26.43;61.69;100050.83;109536;1251;60404;-70
2023/09/08 06:52:49;;;;;;;4.60;3.60;;;;;;;26.63;58.39;100048.48;109640;1250;75493;-70
2023/09/08 06:55:16;;;;;;;8.30;4.60;;;;;;;26.64;55.76;100048.98;109609;1250;67014;-70
2023/09/08 06:57:44;;;;;;;7.10;4.10;;;;;;;26.63;56.28;100051.11;109524;1250;71378;-70
2023/09/08 07:00:12;;;;;;;11.70;4.70;;;;;;;26.74;56.17;100052.17;109516;1250;59784;-70
2023/09/08 07:02:39;;;;;;;7.30;4.30;;;;;;;26.94;56.81;100049.45;109637;1250;60001;-69
2023/09/08 07:05:08;;;;;;;7.30;4.30;;;;;;;27.36;56.05;100047.84;109690;1250;75251;-69
2023/09/08 07:07:35;;;;;;;7.20;4.70;;;;;;;27.75;53.39;100046.69;109507;1251;66296;-69
2023/09/08 07:10:03;;;;;;;4.90;3.50;;;;;;;27.97;53.99;100047.90;109552;1251;71342;-69
2023/09/08 07:12:30;;;;;;;4.50;3.50;;;;;;;28.35;50.40;100044.92;109587;1250;60339;-69
2023/09/08 07:14:56;;;;;;;4.80;4.20;;;;;;;28.48;49.93;100045.64;109677;1250;59703;-70
2023/09/08 07:17:23;;;;;;;7.10;4.20;;;;;;;28.65;49.71;100045.21;109552;1250;75198;-70
2023/09/08 07:19:52;;;;;;;8.20;4.40;;;;;;;28.88;49.41;100039.45;109586;1251;67386;-70
2023/09/08 07:22:20;;;;;;;10.30;3.90;;;;;;;29.25;48.51;100042.55;109474;1251;72717;-70
2023/09/08 07:24:47;;;;;;;5.30;3.70;;;;;;;29.53;46.51;100040.05;109661;1250;60402;-70
2023/09/08 07:27:14;;;;;;;8.60;4.00;;;;;;;29.68;45.30;100039.80;109469;1250;59814;-69
2023/09/08 07:29:41;;;;;;;13.10;4.10;;;;;;;29.84;44.31;100035.63;109366;1251;75527;-70
2023/09/08 07:32:08;;;;;;;7.30;4.00;;;;;;;29.93;43.40;100035.48;109427;1250;67933;-70
2023/09/08 07:34:35;;;;;;;6.10;3.70;;;;;;;29.95;42.23;100031.30;109587;1250;72982;-70
2023/09/08 07:37:02;;;;;;;7.80;3.80;;;;;;;30.00;41.37;100031.09;109554;1250;59805;-70
2023/09/08 07:39:30;;;;;;;3.90;3.50;;;;;;;30.12;40.47;100026.06;109594;1251;60765;-70
2023/09/08 07:41:56;;;;;;;13.30;4.80;;;;;;;30.15;39.23;100023.96;109676;1251;75155;-70
2023/09/08 07:44:27;;;;;;;9.80;4.10;;;;;;;30.07;39.55;100019.96;109538;1250;67896;-70
2023/09/08 07:46:56;;;;;;;8.90;4.20;;;;;;;30.12;39.31;100017.12;109461;1250;71043;-69
2023/09/08 07:49:23;;;;;;;5.60;3.90;;;;;;;30.23;38.82;100022.20;109556;1250;60124;-70
2023/09/08 07:51:50;;;;;;;8.40;4.50;;;;;;;30.41;38.66;100019.55;109584;1250;60494;-70
2023/09/08 07:54:16;;;;;;;4.60;3.90;;;;;;;30.59;38.01;100020.07;109683;1250;73987;-71
2023/09/08 07:56:47;;;;;;;7.40;4.20;;;;;;;30.69;37.45;100021.84;109678;1250;66315;-70
2023/09/08 07:59:15;;;;;;;8.50;4.20;;;;;;;30.85;37.58;100017.51;109565;1251;72480;-70
2023/09/08 08:01:41;;;;;;;11.30;4.00;;;;;;;31.08;36.94;100013.00;109510;1250;59806;-70
2023/09/08 08:04:08;;;;;;;10.60;4.40;;;;;;;31.34;37.21;100007.70;109697;1250;60268;-70
2023/09/08 08:06:35;;;;;;;7.80;3.80;;;;;;;31.75;36.52;100003.38;109557;1250;75397;-70
2023/09/08 08:09:02;;;;;;;6.90;3.70;;;;;;;32.20;35.31;99997.44;109698;1250;66027;-69
2023/09/08 08:11:29;;;;;;;7.10;3.30;;;;;;;32.50;33.65;99998.54;109587;1250;72662;-69
2023/09/08 08:13:59;;;;;;;7.10;2.90;;;;;;;32.71;32.69;99994.98;109631;1250;59873;-69
2023/09/08 08:16:25;;;;;;;7.30;2.70;;;;;;;32.94;31.51;99988.30;109568;1250;60200;-70
2023/09/08 08:18:52;;;;;;;4.00;2.80;;;;;;;33.00;30.45;99985.95;109681;1250;75439;-70
2023/09/08 08:21:19;;;;;;;4.80;2.50;;;;;;;32.88;30.14;99988.33;109621;1250;68113;-70
2023/09/08 08:23:46;;;;;;;3.50;1.70;;;;;;;32.73;30.21;99989.71;109633;1250;71099;-70
2023/09/08 08:26:12;;;;;;;3.40;2.00;;;;;;;32.77;30.18;99987.52;109630;1250;59724;-70
2023/09/08 08:28:39;;;;;;;4.60;2.00;;;;;;;32.90;29.93;99981.00;109656;1250;60046;-70
2023/09/08 08:31:05;;;;;;;3.20;1.90;;;;;;;33.07;30.19;99982.26;109657;1250;75852;-70
2023/09/08 08:33:32;;;;;;;2.80;2.10;;;;;;;33.31;30.30;99986.55;109666;1250;67898;-70
2023/09/08 08:36:00;;;;;;;2.70;1.80;;;;;;;33.64;29.81;99987.77;109547;1250;71475;-70
2023/09/08 08:38:27;;;;;;;6.40;2.00;;;;;;;33.93;29.51;99984.96;109642;1250;59789;-70
2023/09/08 08:40:53;;;;;;;5.80;2.30;;;;;;;34.12;29.11;99986.96;109632;1250;59935;-70
2023/09/08 08:43:20;;;;;;;2.80;2.20;;;;;;;34.17;28.85;99981.44;109693;1250;74346;-70
2023/09/08 08:45:46;;;;;;;4.50;2.30;;;;;;;34.18;29.05;99975.85;109729;1250;66473;-70
2023/09/08 08:48:13;;;;;;;2.30;1.80;;;;;;;34.28;29.07;99972.17;109642;1250;71731;-70
2023/09/08 08:50:41;;;;;;;4.60;2.20;;;;;;;34.37;28.88;99970.89;109608;1250;60002;-70
2023/09/08 08:53:08;;;;;;;2.50;2.00;;;;;;;34.49;28.73;99968.39;109444;1251;59711;-70
2023/09/08 08:55:35;;;;;;;5.50;2.30;;;;;;;34.52;29.04;99968.22;109659;1250;74140;-70
2023/09/08 08:58:03;;;;;;;3.20;2.30;;;;;;;34.48;29.24;99968.95;109756;1250;66849;-70
2023/09/08 09:00:30;;;;;;;3.40;2.30;;;;;;;34.54;29.42;99969.23;109645;1250;72722;-70
2023/09/08 09:02:57;;;;;;;2.60;2.40;;;;;;;34.47;29.41;99966.54;109641;1250;60102;-70
2023/09/08 09:05:39;;;;;;;2.80;2.20;;;;;;;34.33;29.83;99963.44;109585;1250;60596;-70
2023/09/08 09:08:06;;;;;;;5.80;2.50;;;;;;;34.42;30.44;99960.20;109509;1250;74487;-70
2023/09/08 09:10:32;;;;;;;4.20;2.70;;;;;;;34.60;30.12;99966.92;109549;1250;66501;-70
2023/09/08 09:12:59;;;;;;;3.00;2.80;;;;;;;34.72;29.51;99966.44;109642;1250;72405;-69
2023/09/08 09:15:30;;;;;;;4.50;3.20;;;;;;;34.71;29.73;99964.25;109577;1250;60272;-70
2023/09/08 09:18:06;;;;;;;3.30;2.90;;;;;;;34.71;29.98;99962.38;109712;1250;60145;-70
2023/09/08 09:20:33;;;;;;;5.80;5.10;;;;;;;34.74;29.63;99962.61;109604;1250;75306;-70
2023/09/08 09:23:00;;;;;;;5.10;4.40;;;;;;;34.59;29.48;99966.40;109650;1250;67655;-70
2023/09/08 09:25:30;;;;;;;6.10;4.70;;;;;;;34.32;29.71;99958.80;109658;1250;70874;-70
2023/09/08 09:27:58;;;;;;;6.40;5.40;;;;;;;33.99;30.11;99953.92;109634;1250;59985;-70
2023/09/08 09:30:26;;;;;;;5.30;4.80;;;;;;;33.76;30.63;99953.92;109662;1250;60762;-70
2023/09/08 09:33:03;;;;;;;6.00;4.60;;;;;;;33.67;31.06;99955.52;109683;1250;74286;-70
2023/09/08 09:35:40;;;;;;;6.20;5.00;;;;;;;33.47;30.79;99952.79;109624;1250;67027;-69
2023/09/08 09:38:08;;;;;;;9.70;5.50;;;;;;;33.13;31.50;99947.67;109635;1250;72467;-69
2023/09/08 09:40:35;;;;;;;5.90;4.30;;;;;;;33.07;31.43;99946.60;109623;1250;60753;-69
2023/09/08 09:43:04;;;;;;;5.90;4.70;;;;;;;33.13;32.18;99943.94;109673;1251;60056;-69
2023/09/08 09:45:34;;;;;;;7.00;4.90;;;;;;;33.16;31.83;99944.26;109752;1250;76725;-69
2023/09/08 09:48:04;;;;;;;8.10;4.70;;;;;;;33.04;31.65;99943.77;109595;1250;68185;-69
2023/09/08 09:50:33;;;;;;;6.80;4.70;;;;;;;33.04;32.11;99939.73;109676;1250;71507;-69
2023/09/08 09:53:01;;;;;;;7.30;4.90;;;;;;;33.20;31.85;99940.96;109620;1250;60347;-69
2023/09/08 09:55:28;;;;;;;7.80;5.80;;;;;;;33.28;31.94;99939.36;109629;1250;59892;-69
2023/09/08 09:58:01;;;;;;;6.20;5.30;;;;;;;33.36;32.21;99939.81;109630;1251;74542;-69
2023/09/08 10:00:28;;;;;;;7.80;4.50;;;;;;;33.45;32.19;99941.95;109557;1250;66566;-69
2023/09/08 10:02:55;;;;;;;4.60;3.70;;;;;;;33.40;31.88;99936.61;109688;1250;72678;-69
2023/09/08 10:05:23;;;;;;;5.40;3.50;;;;;;;33.35;31.97;99933.02;109572;1250;59789;-70
2023/09/08 10:07:50;;;;;;;5.80;4.20;;;;;;;33.25;31.71;99928.34;109685;1250;60358;-69
2023/09/08 10:10:17;;;;;;;9.60;5.80;;;;;;;32.94;31.70;99921.65;109665;1250;75204;-69
2023/09/08 10:12:47;;;;;;;4.40;4.00;;;;;;;32.50;32.30;99920.67;109605;1250;67772;-70
2023/09/08 10:15:14;;;;;;;4.60;4.10;;;;;;;32.19;32.62;99916.81;109615;1250;74168;-70
2023/09/08 10:17:42;;;;;;;6.30;4.40;;;;;;;31.97;32.85;99915.58;109561;1251;59810;-70
2023/09/08 10:20:12;;;;;;;6.00;4.80;;;;;;;31.70;33.22;99916.45;109681;1250;59724;-70
2023/09/08 10:22:42;;;;;;;5.00;4.50;;;;;;;31.48;33.82;99921.14;109547;1249;75385;-70
2023/09/08 10:25:09;;;;;;;5.10;4.70;;;;;;;31.32;33.45;99911.52;109657;1250;68257;-70
2023/09/08 10:27:36;;;;;;;6.70;4.40;;;;;;;31.11;33.95;99915.88;109672;1250;71492;-70
2023/09/08 10:30:04;;;;;;;7.40;5.20;;;;;;;30.80;34.16;99913.86;109681;1250;60433;-70
2023/09/08 10:32:32;;;;;;;4.50;4.10;;;;;;;30.47;34.81;99913.90;109602;1251;59731;-70
2023/09/08 10:35:00;;;;;;;6.40;4.20;;;;;;;30.28;35.21;99909.65;109437;1250;75458;-70
2023/09/08 10:37:31;;;;;;;4.60;4.20;;;;;;;30.16;36.01;99908.73;109482;1250;66501;-70
2023/09/08 10:40:19;;;;;;;8.30;4.30;;;;;;;30.13;36.22;99904.48;109654;1250;72303;-70
2023/09/08 10:42:46;;;;;;;7.10;4.10;;;;;;;30.02;36.32;99902.92;109683;1250;60194;-70
2023/09/08 10:45:17;;;;;;;5.80;4.00;;;;;;;29.81;36.47;99899.19;109661;1250;59650;-70
2023/09/08 10:47:46;;;;;;;3.60;3.20;;;;;;;29.54;36.48;99894.44;109700;1250;74388;-70
2023/09/08 10:50:17;;;;;;;3.90;3.50;;;;;;;29.28;37.36;99889.83;109618;1251;67958;-69
2023/09/08 10:52:43;;;;;;;3.80;3.20;;;;;;;29.13;37.80;99888.67;109571;1250;71262;-70
2023/09/08 10:55:11;;;;;;;4.30;3.10;;;;;;;29.00;38.72;99885.62;109585;1250;60179;-70
2023/09/08 10:57:38;;;;;;;4.90;3.50;;;;;;;28.89;39.33;99882.00;109652;1250;60798;-70
2023/09/08 11:00:11;;;;;;;6.20;4.10;;;;;;;28.86;40.14;99880.42;109660;1249;74163;-70
2023/09/08 11:02:41;;;;;;;4.00;3.30;;;;;;;28.90;40.23;99881.11;109572;1250;68062;-70
2023/09/08 11:05:08;;;;;;;4.40;3.00;;;;;;;28.85;39.85;99874.67;109602;1250;71481;-70
2023/09/08 11:07:36;;;;;;;6.90;3.40;;;;;;;28.81;40.35;99873.10;109620;1250;59772;-70
2023/09/08 11:10:04;;;;;;;5.60;3.20;;;;;;;28.78;40.56;99869.61;109651;1251;59860;-69
2023/09/08 11:12:31;;;;;;;4.30;3.60;;;;;;;28.76;40.93;99868.90;109678;1250;74261;-69
2023/09/08 11:15:04;;;;;;;4.70;3.20;;;;;;;28.78;41.64;99866.27;109664;1250;67638;-69
2023/09/08 11:17:31;;;;;;;3.50;2.70;;;;;;;28.83;41.48;99865.20;109692;1250;73221;-70